Pajala, Sweden

2:39 AM CEST on July 31, 2016 (GMT +0200)
Kittila | | Change Station

Elev 643 ft 67.70 °N, 24.86 °E | Updated 19 minutes ago

Light Rain Showers
Light Showers Rain
59 °F
Feels Like 59 °F
N
6
Wind Variable Wind from NNE

Today
High -- | Low -- °F
--% Chance of Precip.
Yesterday
High -- | Low -- °F
Precip. -- in
Pressure 29.68 in
Visibility 6.2 miles
Clouds Mostly Cloudy 4500 ft
Mostly Cloudy 7300 ft
Dew Point 55 °F
Humidity 88%
Rainfall 0.00 in
Snow Depth Not available.
2:51 AM 10:10 PM
Waning Crescent, 10% visible
METAR EFKT 310020Z AUTO 02005KT 320V070 9999 -SHRA BKN045 BKN073 15/13 Q1005
Pressure 29.68 in
Visibility 6.2 miles
Clouds Mostly Cloudy 4500 ft
Mostly Cloudy 7300 ft
Dew Point 55 °F
Humidity 88%
Rainfall 0.00 in
Snow Depth Not available.
2:51 AM 10:10 PM
Waning Crescent, 10% visible
METAR EFKT 310020Z AUTO 02005KT 320V070 9999 -SHRA BKN045 BKN073 15/13 Q1005

10-Day Weather Forecast

×

Almanac

Astronomy

Jul. 31, 2016 Rise Set
Actual Time
Civil Twilight
Nautical Twilight
Astronomical Twilight
Moon
Length of Visible Light
Length of Day
Tomorrow will be .
, % of the Moon is Illuminated

Today's Extremes

Country Highs Country Lows

Community

WunderPhotos

Upload Photos

1,928,682 photos uploaded!

WunderBlog® & News

Nearby

Air Quality

  Air Quality AQ Index Pollutant
Not available.

Snow Depth

Station Depth Elevation

Earthquake Activity

City Distance Mag. Time & Date
Minimum magnitude displayed is 2.5.

Coastal Water Temperatures

Place Temperature

Stations

Nearby Weather Stations

Station Location Temp. Windchill Dew Point Humidity Wind Precip. Elev Updated Type